Oysterville, Washington
Current Conditions -  °F | °C
As of 9:45 AM on Wednesday 26 Nov 2014 (Local Time) from KAST Reporting Station
Overcast Overcast  
Wind Chill: 55°   Ceiling: 4000
Heat Index: 55°   Visibility: 10mi
Dew Point: 53°   Wind: 0mph
Humidity: 93%   Direction: NA
Pressure: 30.12"   Gusts: NA
Location:  46.55°N, 124.03°W
Report Text: KAST 261745Z AUTO 00000KT 10SM SCT006 OVC040 13/12 A3012 RMK AO2 T01280117
Loading
Personal Weather Stations






























Interactive Weather Map New forecast layout! Learn more

10-Day Weather Forecast

Advertisements
Track Severe Weather on mobile